sensor_id;sensor_type;location;lat;lon;timestamp;pressure;altitude;pressure_sealevel;temperature;humidity
65151;BME280;51918;51.856;0.150;2023-04-21T00:04:48;100835.97;;;7.33;79.20
65151;BME280;51918;51.856;0.150;2023-04-21T00:09:48;100828.84;;;7.27;79.71
65151;BME280;51918;51.856;0.150;2023-04-21T00:14:50;100823.84;;;7.35;80.14
65151;BME280;51918;51.856;0.150;2023-04-21T00:19:51;100818.75;;;7.45;79.44
65151;BME280;51918;51.856;0.150;2023-04-21T00:24:51;100819.56;;;7.46;79.64
65151;BME280;51918;51.856;0.150;2023-04-21T00:29:53;100811.75;;;7.37;79.20
65151;BME280;51918;51.856;0.150;2023-04-21T00:34:54;100801.66;;;7.36;78.65
65151;BME280;51918;51.856;0.150;2023-04-21T00:39:55;100798.53;;;7.32;78.14
65151;BME280;51918;51.856;0.150;2023-04-21T00:44:57;100790.84;;;7.22;77.89
65151;BME280;51918;51.856;0.150;2023-04-21T00:49:57;100786.41;;;7.15;78.14
65151;BME280;51918;51.856;0.150;2023-04-21T00:54:58;100769.72;;;7.11;79.35
65151;BME280;51918;51.856;0.150;2023-04-21T01:00:01;100763.22;;;7.07;79.41
65151;BME280;51918;51.856;0.150;2023-04-21T01:05:03;100758.91;;;7.07;80.04
65151;BME280;51918;51.856;0.150;2023-04-21T01:10:05;100753.41;;;7.02;81.36
65151;BME280;51918;51.856;0.150;2023-04-21T01:15:09;100752.34;;;7.14;80.68
65151;BME280;51918;51.856;0.150;2023-04-21T01:20:11;100738.22;;;7.10;81.52
65151;BME280;51918;51.856;0.150;2023-04-21T01:25:14;100745.88;;;7.10;82.61
65151;BME280;51918;51.856;0.150;2023-04-21T01:30:14;100731.72;;;7.16;81.42
65151;BME280;51918;51.856;0.150;2023-04-21T01:35:15;100724.88;;;7.16;81.40
65151;BME280;51918;51.856;0.150;2023-04-21T01:40:17;100713.97;;;7.14;80.79
65151;BME280;51918;51.856;0.150;2023-04-21T01:45:17;100707.22;;;7.13;80.59
65151;BME280;51918;51.856;0.150;2023-04-21T01:50:18;100704.53;;;7.05;80.75
65151;BME280;51918;51.856;0.150;2023-04-21T01:55:20;100705.06;;;6.99;80.30
65151;BME280;51918;51.856;0.150;2023-04-21T02:00:21;100701.31;;;6.93;80.03
65151;BME280;51918;51.856;0.150;2023-04-21T02:05:21;100691.31;;;6.90;80.17
65151;BME280;51918;51.856;0.150;2023-04-21T02:10:23;100680.81;;;6.84;80.91
65151;BME280;51918;51.856;0.150;2023-04-21T02:15:24;100678.94;;;6.76;80.15
65151;BME280;51918;51.856;0.150;2023-04-21T02:20:25;100672.47;;;6.72;80.92
65151;BME280;51918;51.856;0.150;2023-04-21T02:25:27;100669.66;;;6.65;80.89
65151;BME280;51918;51.856;0.150;2023-04-21T02:30:27;100659.94;;;6.59;80.42
65151;BME280;51918;51.856;0.150;2023-04-21T02:35:28;100656.97;;;6.54;80.93
65151;BME280;51918;51.856;0.150;2023-04-21T02:40:30;100654.13;;;6.47;81.96
65151;BME280;51918;51.856;0.150;2023-04-21T02:45:31;100640.94;;;6.42;82.04
65151;BME280;51918;51.856;0.150;2023-04-21T02:50:31;100639.88;;;6.45;83.63
65151;BME280;51918;51.856;0.150;2023-04-21T02:55:33;100637.75;;;6.50;83.99
65151;BME280;51918;51.856;0.150;2023-04-21T03:00:34;100626.06;;;6.57;85.12
65151;BME280;51918;51.856;0.150;2023-04-21T03:05:34;100621.88;;;6.66;85.04
65151;BME280;51918;51.856;0.150;2023-04-21T03:10:37;100626.19;;;6.75;85.09
65151;BME280;51918;51.856;0.150;2023-04-21T03:15:38;100615.19;;;6.84;84.66
65151;BME280;51918;51.856;0.150;2023-04-21T03:20:38;100604.94;;;6.84;86.40
65151;BME280;51918;51.856;0.150;2023-04-21T03:25:40;100606.94;;;6.90;86.20
65151;BME280;51918;51.856;0.150;2023-04-21T03:30:41;100595.50;;;6.94;86.17
65151;BME280;51918;51.856;0.150;2023-04-21T03:35:41;100602.38;;;7.04;86.12
65151;BME280;51918;51.856;0.150;2023-04-21T03:40:43;100594.13;;;7.10;85.64
65151;BME280;51918;51.856;0.150;2023-04-21T03:45:44;100588.75;;;7.13;85.64
65151;BME280;51918;51.856;0.150;2023-04-21T03:50:44;100573.66;;;7.19;85.42
65151;BME280;51918;51.856;0.150;2023-04-21T03:55:48;100548.88;;;7.20;85.56
65151;BME280;51918;51.856;0.150;2023-04-21T04:00:49;100541.63;;;7.25;85.38
65151;BME280;51918;51.856;0.150;2023-04-21T04:05:50;100540.66;;;7.26;85.29
65151;BME280;51918;51.856;0.150;2023-04-21T04:10:52;100528.13;;;7.33;85.46
65151;BME280;51918;51.856;0.150;2023-04-21T04:15:52;100526.75;;;7.38;85.56
65151;BME280;51918;51.856;0.150;2023-04-21T04:20:53;100518.53;;;7.45;85.68
65151;BME280;51918;51.856;0.150;2023-04-21T04:25:55;100504.50;;;7.49;85.69
65151;BME280;51918;51.856;0.150;2023-04-21T04:30:55;100504.19;;;7.52;86.17
65151;BME280;51918;51.856;0.150;2023-04-21T04:35:56;100495.97;;;7.58;86.21
65151;BME280;51918;51.856;0.150;2023-04-21T04:40:58;100499.84;;;7.62;86.40
65151;BME280;51918;51.856;0.150;2023-04-21T04:45:58;100486.47;;;7.68;86.75
65151;BME280;51918;51.856;0.150;2023-04-21T04:50:59;100482.97;;;7.69;86.80
65151;BME280;51918;51.856;0.150;2023-04-21T04:56:01;100487.50;;;7.75;86.41
65151;BME280;51918;51.856;0.150;2023-04-21T05:01:09;100479.97;;;7.74;85.82
65151;BME280;51918;51.856;0.150;2023-04-21T05:06:10;100468.88;;;7.83;86.53
65151;BME280;51918;51.856;0.150;2023-04-21T05:11:12;100463.75;;;7.83;87.39
65151;BME280;51918;51.856;0.150;2023-04-21T05:16:12;100464.56;;;7.83;87.19
65151;BME280;51918;51.856;0.150;2023-04-21T05:21:13;100448.63;;;7.90;86.79
65151;BME280;51918;51.856;0.150;2023-04-21T05:26:16;100449.63;;;7.97;87.04
65151;BME280;51918;51.856;0.150;2023-04-21T05:31:17;100436.09;;;8.04;87.51
65151;BME280;51918;51.856;0.150;2023-04-21T05:36:17;100450.19;;;8.09;87.28
65151;BME280;51918;51.856;0.150;2023-04-21T05:41:19;100449.06;;;8.03;87.46
65151;BME280;51918;51.856;0.150;2023-04-21T05:46:20;100445.31;;;8.15;87.79
65151;BME280;51918;51.856;0.150;2023-04-21T05:51:21;100451.69;;;8.29;88.03
65151;BME280;51918;51.856;0.150;2023-04-21T05:56:23;100439.44;;;8.41;87.71
65151;BME280;51918;51.856;0.150;2023-04-21T06:01:23;100456.66;;;8.49;86.83
65151;BME280;51918;51.856;0.150;2023-04-21T06:06:24;100437.97;;;8.56;86.83
65151;BME280;51918;51.856;0.150;2023-04-21T06:11:26;100424.50;;;8.62;86.98
65151;BME280;51918;51.856;0.150;2023-04-21T06:16:27;100408.59;;;8.77;87.22
65151;BME280;51918;51.856;0.150;2023-04-21T06:21:28;100406.09;;;8.93;87.44
65151;BME280;51918;51.856;0.150;2023-04-21T06:26:30;100394.97;;;9.19;87.02
65151;BME280;51918;51.856;0.150;2023-04-21T06:31:31;100400.00;;;9.37;84.99
65151;BME280;51918;51.856;0.150;2023-04-21T06:36:32;100405.63;;;9.48;83.08
65151;BME280;51918;51.856;0.150;2023-04-21T06:41:34;100392.78;;;9.48;81.66
65151;BME280;51918;51.856;0.150;2023-04-21T06:46:34;100392.66;;;9.50;80.82
65151;BME280;51918;51.856;0.150;2023-04-21T06:51:35;100373.41;;;9.54;80.94
65151;BME280;51918;51.856;0.150;2023-04-21T06:56:37;100361.53;;;9.61;81.23
65151;BME280;51918;51.856;0.150;2023-04-21T07:01:38;100346.31;;;9.68;80.90
65151;BME280;51918;51.856;0.150;2023-04-21T07:06:39;100346.78;;;9.72;80.24
65151;BME280;51918;51.856;0.150;2023-04-21T07:11:41;100337.13;;;9.82;80.68
65151;BME280;51918;51.856;0.150;2023-04-21T07:16:41;100331.25;;;9.90;79.98
65151;BME280;51918;51.856;0.150;2023-04-21T07:21:42;100329.78;;;9.95;79.50
65151;BME280;51918;51.856;0.150;2023-04-21T07:26:44;100332.50;;;9.94;78.46
65151;BME280;51918;51.856;0.150;2023-04-21T07:31:44;100326.91;;;9.90;78.46
65151;BME280;51918;51.856;0.150;2023-04-21T07:36:44;100330.09;;;9.92;78.39
65151;BME280;51918;51.856;0.150;2023-04-21T07:41:47;100330.91;;;9.93;77.63
65151;BME280;51918;51.856;0.150;2023-04-21T07:46:47;100325.91;;;9.99;77.91
65151;BME280;51918;51.856;0.150;2023-04-21T07:51:48;100323.84;;;10.03;78.23
65151;BME280;51918;51.856;0.150;2023-04-21T07:56:50;100325.63;;;10.02;78.40
65151;BME280;51918;51.856;0.150;2023-04-21T08:01:50;100313.38;;;10.04;78.78
65151;BME280;51918;51.856;0.150;2023-04-21T08:06:51;100319.34;;;10.05;78.43
65151;BME280;51918;51.856;0.150;2023-04-21T08:11:53;100309.50;;;10.08;78.93
65151;BME280;51918;51.856;0.150;2023-04-21T08:16:54;100309.00;;;10.21;78.95
65151;BME280;51918;51.856;0.150;2023-04-21T08:21:55;100309.47;;;10.41;79.04
65151;BME280;51918;51.856;0.150;2023-04-21T08:26:57;100318.88;;;10.57;77.97
65151;BME280;51918;51.856;0.150;2023-04-21T08:31:57;100303.06;;;10.68;77.22
65151;BME280;51918;51.856;0.150;2023-04-21T08:36:58;100307.84;;;10.80;77.05
65151;BME280;51918;51.856;0.150;2023-04-21T08:42:01;100310.06;;;10.91;76.79
65151;BME280;51918;51.856;0.150;2023-04-21T08:47:02;100309.38;;;10.97;76.20
65151;BME280;51918;51.856;0.150;2023-04-21T08:52:04;100298.63;;;10.94;74.62
65151;BME280;51918;51.856;0.150;2023-04-21T08:57:06;100308.88;;;10.62;75.19
65151;BME280;51918;51.856;0.150;2023-04-21T09:02:12;100302.22;;;10.37;75.08
65151;BME280;51918;51.856;0.150;2023-04-21T09:07:29;100299.97;;;10.42;76.82
65151;BME280;51918;51.856;0.150;2023-04-21T09:12:32;100295.13;;;10.39;75.90
65151;BME280;51918;51.856;0.150;2023-04-21T09:17:32;100306.75;;;10.35;75.56
65151;BME280;51918;51.856;0.150;2023-04-21T09:22:36;100318.47;;;10.29;75.41
65151;BME280;51918;51.856;0.150;2023-04-21T09:27:40;100322.84;;;10.20;73.47
65151;BME280;51918;51.856;0.150;2023-04-21T09:32:41;100318.03;;;10.09;74.45
65151;BME280;51918;51.856;0.150;2023-04-21T09:37:43;100314.84;;;9.99;74.32
65151;BME280;51918;51.856;0.150;2023-04-21T09:42:45;100322.88;;;9.79;74.88
65151;BME280;51918;51.856;0.150;2023-04-21T09:47:48;100324.28;;;9.74;75.51
65151;BME280;51918;51.856;0.150;2023-04-21T09:52:50;100314.84;;;9.66;77.41
65151;BME280;51918;51.856;0.150;2023-04-21T09:57:56;100323.50;;;9.81;77.05
65151;BME280;51918;51.856;0.150;2023-04-21T10:02:59;100315.50;;;9.93;78.32
65151;BME280;51918;51.856;0.150;2023-04-21T10:08:04;100298.94;;;10.12;78.24
65151;BME280;51918;51.856;0.150;2023-04-21T10:13:12;100306.88;;;10.41;78.45
65151;BME280;51918;51.856;0.150;2023-04-21T10:18:17;100302.00;;;10.63;77.52
65151;BME280;51918;51.856;0.150;2023-04-21T10:23:34;100289.59;;;10.98;75.96
65151;BME280;51918;51.856;0.150;2023-04-21T10:28:45;100294.25;;;10.94;74.68
65151;BME280;51918;51.856;0.150;2023-04-21T10:34:13;100291.09;;;11.15;73.86
65151;BME280;51918;51.856;0.150;2023-04-21T10:39:24;100284.78;;;11.18;72.85
65151;BME280;51918;51.856;0.150;2023-04-21T10:44:27;100285.19;;;11.06;72.42
65151;BME280;51918;51.856;0.150;2023-04-21T10:49:29;100281.19;;;11.04;72.06
65151;BME280;51918;51.856;0.150;2023-04-21T10:54:31;100292.31;;;10.96;71.51
65151;BME280;51918;51.856;0.150;2023-04-21T10:59:37;100296.78;;;11.02;71.32
65151;BME280;51918;51.856;0.150;2023-04-21T11:04:38;100287.69;;;10.91;70.97
65151;BME280;51918;51.856;0.150;2023-04-21T11:09:39;100296.25;;;10.84;70.61
65151;BME280;51918;51.856;0.150;2023-04-21T11:14:44;100303.47;;;10.88;70.64
65151;BME280;51918;51.856;0.150;2023-04-21T11:19:45;100290.72;;;10.95;70.56
65151;BME280;51918;51.856;0.150;2023-04-21T11:24:47;100287.00;;;11.29;70.37
65151;BME280;51918;51.856;0.150;2023-04-21T11:29:50;100279.03;;;11.62;70.18
65151;BME280;51918;51.856;0.150;2023-04-21T11:34:50;100299.88;;;11.52;66.80
65151;BME280;51918;51.856;0.150;2023-04-21T11:39:57;100281.97;;;11.73;67.52
65151;BME280;51918;51.856;0.150;2023-04-21T11:45:00;100277.31;;;11.92;65.28
65151;BME280;51918;51.856;0.150;2023-04-21T11:50:01;100274.09;;;11.90;65.62
65151;BME280;51918;51.856;0.150;2023-04-21T11:55:03;100271.88;;;12.02;65.29
65151;BME280;51918;51.856;0.150;2023-04-21T12:00:09;100278.19;;;12.14;61.81
65151;BME280;51918;51.856;0.150;2023-04-21T12:05:10;100266.81;;;12.23;61.63
65151;BME280;51918;51.856;0.150;2023-04-21T12:10:13;100273.84;;;12.29;60.80
65151;BME280;51918;51.856;0.150;2023-04-21T12:15:18;100275.09;;;12.19;61.61
65151;BME280;51918;51.856;0.150;2023-04-21T12:20:20;100280.31;;;12.40;61.51
65151;BME280;51918;51.856;0.150;2023-04-21T12:25:21;100269.28;;;12.46;60.45
65151;BME280;51918;51.856;0.150;2023-04-21T12:30:23;100275.09;;;12.63;57.98
65151;BME280;51918;51.856;0.150;2023-04-21T12:35:24;100273.91;;;12.51;57.35
65151;BME280;51918;51.856;0.150;2023-04-21T12:40:25;100281.47;;;12.67;57.93
65151;BME280;51918;51.856;0.150;2023-04-21T12:45:27;100279.06;;;12.66;56.21
65151;BME280;51918;51.856;0.150;2023-04-21T12:50:27;100286.03;;;12.65;57.74
65151;BME280;51918;51.856;0.150;2023-04-21T12:55:28;100286.16;;;12.79;56.99
65151;BME280;51918;51.856;0.150;2023-04-21T13:00:30;100291.25;;;12.72;56.26
65151;BME280;51918;51.856;0.150;2023-04-21T13:05:31;100293.56;;;12.67;55.71
65151;BME280;51918;51.856;0.150;2023-04-21T13:10:31;100289.75;;;12.99;54.10
65151;BME280;51918;51.856;0.150;2023-04-21T13:15:34;100292.59;;;13.47;53.16
65151;BME280;51918;51.856;0.150;2023-04-21T13:20:34;100301.47;;;13.17;51.73
65151;BME280;51918;51.856;0.150;2023-04-21T13:25:35;100288.00;;;13.92;51.60
65151;BME280;51918;51.856;0.150;2023-04-21T13:30:37;100274.78;;;14.57;49.96
65151;BME280;51918;51.856;0.150;2023-04-21T13:35:38;100273.78;;;14.65;46.91
65151;BME280;51918;51.856;0.150;2023-04-21T13:40:38;100273.47;;;14.26;46.34
65151;BME280;51918;51.856;0.150;2023-04-21T13:45:41;100260.91;;;14.30;48.03
65151;BME280;51918;51.856;0.150;2023-04-21T13:50:41;100256.28;;;14.12;47.10
65151;BME280;51918;51.856;0.150;2023-04-21T13:55:42;100259.72;;;13.63;46.95
65151;BME280;51918;51.856;0.150;2023-04-21T14:00:44;100259.31;;;13.66;49.49
65151;BME280;51918;51.856;0.150;2023-04-21T14:05:45;100258.31;;;13.88;48.22
65151;BME280;51918;51.856;0.150;2023-04-21T14:10:45;100262.63;;;14.09;48.95
65151;BME280;51918;51.856;0.150;2023-04-21T14:15:47;100248.47;;;14.47;48.69
65151;BME280;51918;51.856;0.150;2023-04-21T14:20:48;100255.44;;;14.53;47.28
65151;BME280;51918;51.856;0.150;2023-04-21T14:25:49;100243.81;;;14.29;47.10
65151;BME280;51918;51.856;0.150;2023-04-21T14:30:51;100234.25;;;13.88;46.11
65151;BME280;51918;51.856;0.150;2023-04-21T14:35:51;100240.41;;;13.59;45.97
65151;BME280;51918;51.856;0.150;2023-04-21T14:40:52;100219.94;;;13.64;45.75
65151;BME280;51918;51.856;0.150;2023-04-21T14:45:54;100235.84;;;13.61;44.29
65151;BME280;51918;51.856;0.150;2023-04-21T14:50:54;100242.44;;;13.42;45.53
65151;BME280;51918;51.856;0.150;2023-04-21T14:55:55;100225.31;;;13.34;45.37
65151;BME280;51918;51.856;0.150;2023-04-21T15:00:57;100208.34;;;13.53;46.45
65151;BME280;51918;51.856;0.150;2023-04-21T15:05:58;100209.59;;;13.64;46.97
65151;BME280;51918;51.856;0.150;2023-04-21T15:10:58;100203.34;;;13.73;46.72
65151;BME280;51918;51.856;0.150;2023-04-21T15:16:00;100202.03;;;13.90;46.22
65151;BME280;51918;51.856;0.150;2023-04-21T15:21:01;100187.59;;;14.03;45.15
65151;BME280;51918;51.856;0.150;2023-04-21T15:26:02;100182.59;;;13.94;45.86
65151;BME280;51918;51.856;0.150;2023-04-21T15:31:04;100180.34;;;13.85;45.52
65151;BME280;51918;51.856;0.150;2023-04-21T15:36:05;100179.88;;;14.09;46.55
65151;BME280;51918;51.856;0.150;2023-04-21T15:41:05;100165.94;;;14.17;45.03
65151;BME280;51918;51.856;0.150;2023-04-21T15:46:08;100155.09;;;13.93;44.43
65151;BME280;51918;51.856;0.150;2023-04-21T15:51:08;100156.94;;;13.65;45.20
65151;BME280;51918;51.856;0.150;2023-04-21T15:56:09;100148.03;;;13.39;46.50
65151;BME280;51918;51.856;0.150;2023-04-21T16:01:11;100141.03;;;13.33;45.73
65151;BME280;51918;51.856;0.150;2023-04-21T16:06:12;100157.03;;;13.15;44.16
65151;BME280;51918;51.856;0.150;2023-04-21T16:11:12;100149.91;;;12.95;44.97
65151;BME280;51918;51.856;0.150;2023-04-21T16:16:14;100145.53;;;12.96;45.86
65151;BME280;51918;51.856;0.150;2023-04-21T16:21:15;100144.50;;;12.90;47.44
65151;BME280;51918;51.856;0.150;2023-04-21T16:26:15;100143.66;;;13.11;46.44
65151;BME280;51918;51.856;0.150;2023-04-21T16:31:17;100140.53;;;13.16;46.39
65151;BME280;51918;51.856;0.150;2023-04-21T16:36:18;100132.25;;;12.99;46.53
65151;BME280;51918;51.856;0.150;2023-04-21T16:41:19;100139.16;;;12.70;46.62
65151;BME280;51918;51.856;0.150;2023-04-21T16:46:21;100132.53;;;12.83;47.04
65151;BME280;51918;51.856;0.150;2023-04-21T16:51:21;100143.03;;;12.81;47.86
65151;BME280;51918;51.856;0.150;2023-04-21T16:56:22;100138.03;;;12.80;46.74
65151;BME280;51918;51.856;0.150;2023-04-21T17:01:24;100118.97;;;13.02;47.08
65151;BME280;51918;51.856;0.150;2023-04-21T17:06:25;100118.38;;;13.00;45.28
65151;BME280;51918;51.856;0.150;2023-04-21T17:11:25;100114.09;;;13.14;45.17
65151;BME280;51918;51.856;0.150;2023-04-21T17:16:27;100126.72;;;13.30;45.57
65151;BME280;51918;51.856;0.150;2023-04-21T17:21:28;100124.97;;;13.09;44.76
65151;BME280;51918;51.856;0.150;2023-04-21T17:26:29;100129.09;;;12.97;46.21
65151;BME280;51918;51.856;0.150;2023-04-21T17:31:31;100125.41;;;12.85;45.98
65151;BME280;51918;51.856;0.150;2023-04-21T17:36:32;100117.56;;;12.71;46.86
65151;BME280;51918;51.856;0.150;2023-04-21T17:41:32;100114.31;;;12.63;46.95
65151;BME280;51918;51.856;0.150;2023-04-21T17:46:35;100101.44;;;12.69;46.22
65151;BME280;51918;51.856;0.150;2023-04-21T17:51:36;100104.91;;;12.40;46.67
65151;BME280;51918;51.856;0.150;2023-04-21T17:56:37;100100.19;;;12.22;47.67
65151;BME280;51918;51.856;0.150;2023-04-21T18:01:39;100097.94;;;12.19;48.21
65151;BME280;51918;51.856;0.150;2023-04-21T18:06:40;100093.63;;;12.20;48.12
65151;BME280;51918;51.856;0.150;2023-04-21T18:11:40;100102.00;;;12.07;49.17
65151;BME280;51918;51.856;0.150;2023-04-21T18:16:42;100097.22;;;11.89;50.19
65151;BME280;51918;51.856;0.150;2023-04-21T18:21:43;100094.41;;;11.84;50.78
65151;BME280;51918;51.856;0.150;2023-04-21T18:26:44;100086.84;;;11.82;51.07
65151;BME280;51918;51.856;0.150;2023-04-21T18:31:46;100093.94;;;11.80;51.36
65151;BME280;51918;51.856;0.150;2023-04-21T18:36:46;100079.97;;;11.53;52.11
65151;BME280;51918;51.856;0.150;2023-04-21T18:41:48;100088.41;;;11.47;52.79
65151;BME280;51918;51.856;0.150;2023-04-21T18:46:50;100077.38;;;11.38;53.13
65151;BME280;51918;51.856;0.150;2023-04-21T18:51:50;100073.38;;;11.36;53.81
65151;BME280;51918;51.856;0.150;2023-04-21T18:56:51;100059.34;;;11.38;53.99
65151;BME280;51918;51.856;0.150;2023-04-21T19:01:53;100055.25;;;11.29;54.21
65151;BME280;51918;51.856;0.150;2023-04-21T19:06:53;100044.41;;;11.19;54.29
65151;BME280;51918;51.856;0.150;2023-04-21T19:11:54;100036.06;;;11.02;54.81
65151;BME280;51918;51.856;0.150;2023-04-21T19:16:56;100044.91;;;10.84;55.42
65151;BME280;51918;51.856;0.150;2023-04-21T19:21:57;100051.66;;;10.62;56.01
65151;BME280;51918;51.856;0.150;2023-04-21T19:26:58;100040.44;;;10.40;56.51
65151;BME280;51918;51.856;0.150;2023-04-21T19:32:00;100034.97;;;10.20;57.55
65151;BME280;51918;51.856;0.150;2023-04-21T19:37:00;100025.13;;;10.01;58.08
65151;BME280;51918;51.856;0.150;2023-04-21T19:42:01;100026.94;;;9.84;58.59
65151;BME280;51918;51.856;0.150;2023-04-21T19:47:12;100032.00;;;9.69;59.67
65151;BME280;51918;51.856;0.150;2023-04-21T19:52:13;100034.31;;;9.56;60.04
65151;BME280;51918;51.856;0.150;2023-04-21T19:57:13;100018.63;;;9.42;60.92
65151;BME280;51918;51.856;0.150;2023-04-21T20:02:15;100027.50;;;9.32;61.55
65151;BME280;51918;51.856;0.150;2023-04-21T20:07:28;100034.09;;;9.18;62.14
65151;BME280;51918;51.856;0.150;2023-04-21T20:12:44;100023.91;;;9.01;62.51
65151;BME280;51918;51.856;0.150;2023-04-21T20:17:46;100017.00;;;8.85;62.71
65151;BME280;51918;51.856;0.150;2023-04-21T20:22:59;100018.63;;;8.70;63.80
65151;BME280;51918;51.856;0.150;2023-04-21T20:28:12;100023.31;;;8.58;64.43
65151;BME280;51918;51.856;0.150;2023-04-21T20:33:14;100016.09;;;8.45;65.29
65151;BME280;51918;51.856;0.150;2023-04-21T20:38:23;100016.97;;;8.28;64.85
65151;BME280;51918;51.856;0.150;2023-04-21T20:43:24;100021.47;;;8.18;66.24
65151;BME280;51918;51.856;0.150;2023-04-21T20:48:32;100026.09;;;8.06;67.21
65151;BME280;51918;51.856;0.150;2023-04-21T20:53:51;100031.50;;;7.95;67.00
65151;BME280;51918;51.856;0.150;2023-04-21T20:58:52;100012.91;;;7.84;67.01
65151;BME280;51918;51.856;0.150;2023-04-21T21:03:54;100018.84;;;7.77;68.01
65151;BME280;51918;51.856;0.150;2023-04-21T21:09:06;100012.06;;;7.68;68.23
65151;BME280;51918;51.856;0.150;2023-04-21T21:14:07;100001.00;;;7.59;68.57
65151;BME280;51918;51.856;0.150;2023-04-21T21:24:27;99989.47;;;7.55;69.20
65151;BME280;51918;51.856;0.150;2023-04-21T21:29:28;99979.72;;;7.58;70.15
65151;BME280;51918;51.856;0.150;2023-04-21T21:34:30;99979.09;;;7.64;70.43
65151;BME280;51918;51.856;0.150;2023-04-21T21:39:31;99975.78;;;7.72;70.56
65151;BME280;51918;51.856;0.150;2023-04-21T21:44:37;99965.84;;;7.77;69.93
65151;BME280;51918;51.856;0.150;2023-04-21T21:50:03;99966.19;;;7.82;70.28
65151;BME280;51918;51.856;0.150;2023-04-21T21:55:04;99951.78;;;7.81;69.63
65151;BME280;51918;51.856;0.150;2023-04-21T22:00:07;99951.28;;;7.78;69.62
65151;BME280;51918;51.856;0.150;2023-04-21T22:05:27;99959.91;;;7.69;69.60
65151;BME280;51918;51.856;0.150;2023-04-21T22:10:28;99955.56;;;7.61;69.68
65151;BME280;51918;51.856;0.150;2023-04-21T22:15:40;99952.53;;;7.57;69.78
65151;BME280;51918;51.856;0.150;2023-04-21T22:20:42;99947.72;;;7.54;70.52
65151;BME280;51918;51.856;0.150;2023-04-21T22:26:04;99947.88;;;7.53;70.73
65151;BME280;51918;51.856;0.150;2023-04-21T22:31:23;99942.13;;;7.51;70.56
65151;BME280;51918;51.856;0.150;2023-04-21T22:36:50;99937.31;;;7.48;71.34
65151;BME280;51918;51.856;0.150;2023-04-21T22:47:09;99938.91;;;7.40;71.57
65151;BME280;51918;51.856;0.150;2023-04-21T22:52:24;99949.41;;;7.37;71.69
65151;BME280;51918;51.856;0.150;2023-04-21T22:57:24;99951.97;;;7.29;71.68
65151;BME280;51918;51.856;0.150;2023-04-21T23:02:31;99948.41;;;7.22;73.23
65151;BME280;51918;51.856;0.150;2023-04-21T23:07:52;99941.75;;;7.29;73.68
65151;BME280;51918;51.856;0.150;2023-04-21T23:12:53;99931.03;;;7.34;72.86
65151;BME280;51918;51.856;0.150;2023-04-21T23:17:53;99930.88;;;7.35;72.97
65151;BME280;51918;51.856;0.150;2023-04-21T23:23:15;99913.59;;;7.37;72.96
65151;BME280;51918;51.856;0.150;2023-04-21T23:28:16;99912.66;;;7.38;73.28
65151;BME280;51918;51.856;0.150;2023-04-21T23:33:22;99908.34;;;7.39;73.54
65151;BME280;51918;51.856;0.150;2023-04-21T23:38:25;99899.22;;;7.36;73.06
65151;BME280;51918;51.856;0.150;2023-04-21T23:43:47;99889.00;;;7.36;73.19
65151;BME280;51918;51.856;0.150;2023-04-21T23:49:03;99887.69;;;7.32;72.97
65151;BME280;51918;51.856;0.150;2023-04-21T23:54:10;99881.94;;;7.30;72.98
65151;BME280;51918;51.856;0.150;2023-04-21T23:59:14;99881.28;;;7.28;73.19
